aviador You're here:

KADF Decoded Metar

in
Report Time2017-12-16 17:56:00
UTC Time2017-12-16 18:50:29
Flight Rules vfr VFR
Wind200° at 07 kt
W.Decomp.*RWY 22: 6.6 kt HW 2.4 kt LCW
W.Rank200° ranks 7
Current wind is above 200° avg. (6.9)
Visibility9999 m
Phenomena:N/A
Clouds:N/A
Expected CloudBase > 4,800 ft AGL from Temp-Dew spread
CeilingNone
Temp12°C
Dew Point00°C (44% RH)
AAT7.5°C
QNH1023 hPa
Raw Report
KADF 161756Z AUTO 20007KT 10SM CLR 12/00 A3020 RMK AO2 SLP233
T01170000 10117 21061 58013=

Extra information for KADF:More info

Social comments